Time;durP1;ratioP1;P1;durP2;ratioP2;P2;SDS_P1;SDS_P2;PMS_P1;PMS_P2;Temp;Humidity;BMP_temperature;BMP_pressure;BME280_temperature;BME280_humidity;BME280_pressure;Samples;Min_cycle;Max_cycle;Signal;HPM_P1;HPM_P2
2023/04/11 00:00:23;;;;;;;2.30;1.17;;;19.60;63.50;;;;;;5011175;28;20042;-68
2023/04/11 00:02:53;;;;;;;2.15;1.25;;;19.60;63.50;;;;;;5009812;28;20064;-68
2023/04/11 00:05:20;;;;;;;2.50;1.25;;;19.60;63.60;;;;;;5003612;28;20128;-68
2023/04/11 00:07:47;;;;;;;2.20;1.10;;;19.50;63.60;;;;;;5010989;28;20053;-68
2023/04/11 00:10:14;;;;;;;2.08;1.08;;;19.50;63.60;;;;;;5010535;28;20064;-68
2023/04/11 00:12:41;;;;;;;2.53;1.35;;;19.50;63.60;;;;;;5008191;28;20050;-68
2023/04/11 00:15:09;;;;;;;2.50;1.10;;;19.50;63.60;;;;;;5011512;28;20516;-68
2023/04/11 00:17:36;;;;;;;1.85;0.52;;;19.50;63.70;;;;;;5010085;28;20382;-68
2023/04/11 00:20:06;;;;;;;2.35;1.10;;;19.40;63.60;;;;;;5009500;28;20081;-68
2023/04/11 00:22:34;;;;;;;2.55;1.33;;;19.40;63.70;;;;;;5005055;28;20076;-68
2023/04/11 00:25:01;;;;;;;2.60;1.42;;;19.40;63.70;;;;;;5001962;28;20053;-68
2023/04/11 00:27:28;;;;;;;2.55;1.15;;;19.40;63.70;;;;;;5008564;28;20046;-68
2023/04/11 00:29:56;;;;;;;2.92;1.15;;;19.30;63.60;;;;;;5009218;28;20049;-68
2023/04/11 00:32:23;;;;;;;2.20;1.13;;;19.30;63.60;;;;;;5008169;28;20046;-68
2023/04/11 00:34:50;;;;;;;2.50;1.20;;;19.30;63.70;;;;;;5010475;28;20054;-68
2023/04/11 00:37:20;;;;;;;1.90;0.57;;;19.20;63.70;;;;;;5008132;28;20411;-68
2023/04/11 00:39:49;;;;;;;;;;;19.20;63.70;;;;;;5009777;28;20061;-68
2023/04/11 00:42:16;;;;;;;2.08;0.80;;;19.20;63.70;;;;;;5009757;28;20253;-68
2023/04/11 00:44:50;;;;;;;2.38;1.05;;;19.20;63.80;;;;;;5010513;28;20049;-68
2023/04/11 00:47:17;;;;;;;1.80;0.98;;;19.10;63.80;;;;;;5008137;28;20069;-68
2023/04/11 00:49:45;;;;;;;2.47;0.50;;;19.10;63.80;;;;;;5011436;28;20373;-68
2023/04/11 00:52:12;;;;;;;2.35;0.88;;;19.10;63.90;;;;;;5009824;28;20064;-68
2023/04/11 00:54:40;;;;;;;2.40;1.13;;;19.00;63.90;;;;;;5010242;28;20141;-68
2023/04/11 00:57:08;;;;;;;2.28;1.35;;;19.00;63.90;;;;;;5009854;28;20054;-68
2023/04/11 00:59:35;;;;;;;3.22;1.27;;;19.00;64.00;;;;;;5008862;28;20065;-68
2023/04/11 01:02:02;;;;;;;2.28;0.60;;;19.00;64.00;;;;;;5007394;28;20061;-68
2023/04/11 01:04:29;;;;;;;2.17;1.08;;;19.00;64.00;;;;;;5007831;28;20515;-68
2023/04/11 01:07:02;;;;;;;1.45;0.95;;;19.00;64.00;;;;;;5010075;28;20054;-68
2023/04/11 01:09:32;;;;;;;1.38;0.43;;;18.90;64.00;;;;;;5010231;28;20058;-68
2023/04/11 01:12:01;;;;;;;2.15;0.98;;;18.90;64.10;;;;;;5009392;28;20062;-68
2023/04/11 01:14:29;;;;;;;1.42;0.70;;;18.90;64.10;;;;;;5011289;28;20132;-68
2023/04/11 01:16:56;;;;;;;3.17;0.95;;;18.90;64.10;;;;;;5010976;28;20123;-68
2023/04/11 01:19:25;;;;;;;1.73;0.50;;;18.80;64.10;;;;;;5010358;28;20420;-68
2023/04/11 01:21:53;;;;;;;2.05;0.90;;;18.90;64.20;;;;;;5009890;28;20348;-68
2023/04/11 01:24:23;;;;;;;1.45;0.47;;;18.80;64.20;;;;;;5007485;28;20479;-68
2023/04/11 01:26:50;;;;;;;2.05;1.02;;;18.80;64.20;;;;;;5011260;28;20046;-68
2023/04/11 01:29:17;;;;;;;1.50;0.85;;;18.80;64.20;;;;;;5009177;28;20499;-68
2023/04/11 01:31:45;;;;;;;1.90;0.43;;;18.80;64.20;;;;;;5007798;28;20058;-68
2023/04/11 01:34:14;;;;;;;2.22;0.38;;;18.80;64.20;;;;;;5008923;28;20073;-68
2023/04/11 01:36:41;;;;;;;2.40;1.00;;;18.80;64.20;;;;;;5006155;28;20057;-68
2023/04/11 01:39:09;;;;;;;1.60;0.40;;;18.80;64.20;;;;;;5009024;28;20066;-68
2023/04/11 01:41:38;;;;;;;1.75;0.90;;;18.90;64.10;;;;;;5009563;28;20065;-68
2023/04/11 01:44:05;;;;;;;1.85;0.90;;;18.90;64.10;;;;;;5009575;28;20057;-68
2023/04/11 01:46:33;;;;;;;1.98;0.88;;;19.00;64.10;;;;;;5009693;28;20508;-68
2023/04/11 01:49:00;;;;;;;2.00;1.08;;;19.00;64.00;;;;;;5008598;28;20066;-68
2023/04/11 01:51:27;;;;;;;1.98;0.95;;;19.00;63.80;;;;;;5009687;28;20049;-68
2023/04/11 01:53:54;;;;;;;1.98;1.02;;;19.10;63.80;;;;;;5008908;28;20493;-68
2023/04/11 01:56:21;;;;;;;2.50;0.50;;;19.10;63.70;;;;;;5007347;28;20053;-69
2023/04/11 01:58:49;;;;;;;2.67;0.88;;;19.20;63.60;;;;;;5009950;28;20057;-69
2023/04/11 02:01:18;;;;;;;2.38;1.58;;;19.30;63.50;;;;;;5001917;28;20393;-69
2023/04/11 02:03:45;;;;;;;1.40;0.40;;;19.40;63.40;;;;;;5006657;28;20058;-69
2023/04/11 02:06:12;;;;;;;1.35;0.30;;;19.40;63.30;;;;;;5009151;28;20053;-68
2023/04/11 02:08:39;;;;;;;2.15;0.40;;;19.50;63.20;;;;;;5009514;28;20508;-68
2023/04/11 02:11:07;;;;;;;2.65;0.30;;;19.60;63.10;;;;;;5009428;28;20061;-68
2023/04/11 02:13:34;;;;;;;1.63;0.40;;;19.70;63.00;;;;;;5007768;28;20053;-68
2023/04/11 02:16:07;;;;;;;1.73;0.80;;;19.70;63.50;;;;;;5009480;28;20061;-68
2023/04/11 02:18:36;;;;;;;1.95;0.90;;;19.70;62.80;;;;;;5008369;28;20404;-68
2023/04/11 02:21:03;;;;;;;2.15;1.05;;;19.70;62.80;;;;;;5008934;28;20065;-68
2023/04/11 02:23:30;;;;;;;2.60;0.73;;;19.70;62.80;;;;;;5008442;28;20128;-68
2023/04/11 02:25:57;;;;;;;1.75;0.35;;;19.70;62.80;;;;;;5008393;28;20459;-68
2023/04/11 02:28:24;;;;;;;1.90;1.17;;;19.70;62.80;;;;;;5008093;28;20049;-68
2023/04/11 02:30:51;;;;;;;2.78;0.90;;;19.70;62.90;;;;;;5010024;28;20049;-69
2023/04/11 02:33:19;;;;;;;2.08;0.85;;;19.70;62.90;;;;;;5000135;28;20049;-68
2023/04/11 02:35:47;;;;;;;1.63;0.70;;;19.60;62.90;;;;;;5009884;28;20053;-68
2023/04/11 02:38:14;;;;;;;1.38;0.70;;;19.60;62.90;;;;;;5008707;28;20061;-68
2023/04/11 02:40:41;;;;;;;1.60;0.82;;;19.60;63.00;;;;;;5007551;28;20058;-68
2023/04/11 02:43:08;;;;;;;2.17;0.77;;;19.60;63.00;;;;;;5008389;28;20124;-68
2023/04/11 02:45:35;;;;;;;1.40;0.75;;;19.60;63.00;;;;;;5009815;28;20054;-68
2023/04/11 02:48:02;;;;;;;2.40;0.40;;;19.50;63.00;;;;;;5008312;28;20423;-68
2023/04/11 02:50:30;;;;;;;1.88;0.43;;;19.50;63.10;;;;;;5008163;28;20718;-68
2023/04/11 02:52:57;;;;;;;2.50;0.93;;;19.50;63.10;;;;;;5007788;28;20129;-68
2023/04/11 02:55:24;;;;;;;2.03;1.02;;;19.50;63.10;;;;;;5009668;28;20153;-68
2023/04/11 02:57:51;;;;;;;1.70;0.20;;;19.40;63.10;;;;;;5007989;28;20069;-68
2023/04/11 03:00:20;;;;;;;2.33;0.95;;;19.40;63.10;;;;;;5002523;28;20058;-68
2023/04/11 03:02:47;;;;;;;2.33;1.00;;;19.40;63.10;;;;;;5008788;28;20551;-68
2023/04/11 03:05:15;;;;;;;1.88;0.30;;;19.30;63.10;;;;;;5006855;28;20062;-68
2023/04/11 03:07:45;;;;;;;1.80;0.90;;;19.30;63.20;;;;;;5007738;28;20436;-68
2023/04/11 03:10:12;;;;;;;2.22;0.50;;;19.20;63.20;;;;;;5009520;28;20077;-68
2023/04/11 03:12:40;;;;;;;2.35;0.30;;;19.20;63.20;;;;;;5007768;28;20057;-68
2023/04/11 03:15:07;;;;;;;2.25;0.22;;;19.20;63.20;;;;;;5008684;28;20085;-68
2023/04/11 03:17:35;;;;;;;2.10;0.40;;;19.20;63.30;;;;;;5006013;28;20057;-68
2023/04/11 03:20:05;;;;;;;1.67;0.30;;;19.20;63.30;;;;;;5009376;28;20060;-68
2023/04/11 03:22:33;;;;;;;1.75;0.77;;;19.10;63.30;;;;;;5007716;28;20053;-68
2023/04/11 03:25:01;;;;;;;1.67;0.32;;;19.10;63.30;;;;;;5009992;28;20527;-68
2023/04/11 03:27:28;;;;;;;1.58;0.85;;;19.10;63.40;;;;;;5011225;28;20046;-68
2023/04/11 03:29:55;;;;;;;1.75;0.85;;;19.00;63.40;;;;;;5011020;28;20050;-68
2023/04/11 03:32:22;;;;;;;2.20;0.50;;;19.00;63.40;;;;;;5010292;28;20049;-68
2023/04/11 03:34:50;;;;;;;1.45;0.30;;;19.00;63.40;;;;;;5010920;28;20800;-68
2023/04/11 03:37:17;;;;;;;1.83;0.30;;;19.00;63.50;;;;;;5011291;28;20049;-68
2023/04/11 03:39:44;;;;;;;1.98;1.27;;;18.90;63.40;;;;;;5011242;28;20046;-68
2023/04/11 03:42:12;;;;;;;1.98;0.25;;;18.90;63.50;;;;;;5011868;28;20053;-68
2023/04/11 03:44:39;;;;;;;1.92;0.95;;;18.90;63.50;;;;;;5012038;28;20489;-68
2023/04/11 03:47:06;;;;;;;1.27;0.70;;;18.90;63.50;;;;;;5011325;28;20057;-68
2023/04/11 03:49:33;;;;;;;2.03;0.80;;;18.90;63.50;;;;;;5010568;28;20057;-68
2023/04/11 03:52:00;;;;;;;1.60;0.70;;;18.90;64.20;;;;;;5010834;28;20050;-68
2023/04/11 03:54:27;;;;;;;1.70;0.98;;;18.80;63.50;;;;;;5011709;28;20054;-68
2023/04/11 03:56:54;;;;;;;1.42;0.43;;;18.80;63.50;;;;;;5011480;28;20536;-68
2023/04/11 03:59:22;;;;;;;1.88;0.68;;;18.80;63.50;;;;;;5010878;28;20061;-68
2023/04/11 04:01:50;;;;;;;1.13;0.60;;;18.80;63.50;;;;;;5010509;28;20057;-68
2023/04/11 04:04:16;;;;;;;1.13;0.22;;;18.90;63.50;;;;;;5011632;28;20053;-68
2023/04/11 04:06:44;;;;;;;1.67;0.63;;;18.90;63.50;;;;;;5011085;28;20061;-68
2023/04/11 04:09:11;;;;;;;2.30;0.90;;;18.80;64.00;;;;;;5009958;28;20064;-68
2023/04/11 04:11:38;;;;;;;2.28;1.38;;;18.90;63.40;;;;;;5010430;28;20054;-68
2023/04/11 04:14:05;;;;;;;0.98;0.17;;;19.00;63.30;;;;;;5011803;28;20058;-68
2023/04/11 04:16:34;;;;;;;3.42;0.30;;;19.00;63.30;;;;;;5005538;28;20054;-68
2023/04/11 04:19:01;;;;;;;1.50;0.63;;;19.10;63.30;;;;;;5003068;28;20054;-68
2023/04/11 04:21:31;;;;;;;1.80;0.98;;;19.10;63.10;;;;;;5008675;28;20528;-68
2023/04/11 04:24:02;;;;;;;1.20;0.70;;;19.20;63.10;;;;;;5011184;28;20054;-68
2023/04/11 04:26:30;;;;;;;1.42;0.65;;;19.30;63.00;;;;;;5011459;28;20057;-68
2023/04/11 04:29:03;;;;;;;1.08;0.52;;;19.30;63.40;;;;;;5011572;28;20112;-68
2023/04/11 04:31:32;;;;;;;1.80;1.15;;;19.40;62.80;;;;;;5010346;28;20060;-68
2023/04/11 04:34:07;;;;;;;2.17;0.65;;;19.50;62.70;;;;;;5011095;28;20098;-68
2023/04/11 04:36:45;;;;;;;1.92;0.30;;;19.50;62.50;;;;;;5011593;28;20049;-68
2023/04/11 04:39:16;;;;;;;1.65;0.75;;;19.60;62.40;;;;;;5009560;28;20053;-68
2023/04/11 04:41:44;;;;;;;1.05;0.35;;;19.70;62.40;;;;;;5009812;28;20060;-68
2023/04/11 04:44:11;;;;;;;1.80;1.00;;;19.70;62.30;;;;;;5010753;28;20580;-68
2023/04/11 04:46:38;;;;;;;1.23;0.22;;;19.70;62.30;;;;;;4998402;28;20064;-68
2023/04/11 04:49:08;;;;;;;2.20;0.77;;;19.70;62.20;;;;;;5008992;28;20111;-68
2023/04/11 04:51:35;;;;;;;1.40;0.28;;;19.70;62.20;;;;;;5025523;28;20071;-68
2023/04/11 04:54:03;;;;;;;1.95;1.38;;;19.70;62.20;;;;;;5011260;28;20532;-68
2023/04/11 04:56:31;;;;;;;2.03;0.20;;;19.70;62.30;;;;;;5007966;28;20531;-68
2023/04/11 04:58:58;;;;;;;1.20;0.50;;;19.70;62.30;;;;;;5007883;28;20070;-68
2023/04/11 05:01:25;;;;;;;1.08;0.20;;;19.70;62.30;;;;;;5001948;28;20385;-69
2023/04/11 05:03:58;;;;;;;1.42;0.55;;;19.70;62.40;;;;;;5009535;28;20066;-68
2023/04/11 05:06:28;;;;;;;1.95;0.57;;;19.60;62.40;;;;;;5008843;28;20497;-69
2023/04/11 05:08:56;;;;;;;2.08;0.60;;;19.60;62.40;;;;;;5009275;28;20086;-68
2023/04/11 05:11:23;;;;;;;1.25;0.30;;;19.60;62.50;;;;;;5007777;28;20155;-68
2023/04/11 05:13:50;;;;;;;1.05;0.10;;;19.50;62.50;;;;;;5009783;28;20155;-68
2023/04/11 05:16:17;;;;;;;1.20;0.65;;;19.50;62.50;;;;;;5007013;28;20065;-68
2023/04/11 05:18:44;;;;;;;2.58;0.30;;;19.50;62.50;;;;;;4997894;28;20054;-68
2023/04/11 05:21:12;;;;;;;1.30;0.20;;;19.50;62.60;;;;;;5008515;28;20128;-68
2023/04/11 05:23:41;;;;;;;1.45;0.70;;;19.40;62.50;;;;;;5009280;28;20050;-68
2023/04/11 05:26:09;;;;;;;1.30;0.55;;;19.40;62.60;;;;;;4996695;28;20066;-68
2023/04/11 05:28:36;;;;;;;1.65;0.70;;;19.40;62.60;;;;;;5002315;28;20046;-68
2023/04/11 05:31:03;;;;;;;1.40;0.17;;;19.30;62.60;;;;;;5008628;28;20046;-68
2023/04/11 05:33:30;;;;;;;1.23;0.20;;;19.30;62.60;;;;;;5010077;28;20053;-68
2023/04/11 05:35:57;;;;;;;2.47;0.90;;;19.30;62.70;;;;;;5007860;28;20054;-68
2023/04/11 05:38:24;;;;;;;2.05;0.75;;;19.20;62.70;;;;;;5008589;28;20058;-68
2023/04/11 05:40:53;;;;;;;1.67;0.20;;;19.30;62.70;;;;;;5008331;28;20057;-68
2023/04/11 05:43:20;;;;;;;0.75;0.10;;;19.20;62.70;;;;;;5008770;28;20397;-68
2023/04/11 05:45:47;;;;;;;1.40;0.20;;;19.20;62.80;;;;;;5012846;28;20058;-68
2023/04/11 05:48:15;;;;;;;1.85;0.68;;;19.20;62.80;;;;;;5009828;28;20181;-68
2023/04/11 05:50:42;;;;;;;1.73;0.90;;;19.10;62.80;;;;;;5008290;28;20057;-69
2023/04/11 05:53:09;;;;;;;2.15;0.70;;;19.10;62.90;;;;;;5010400;28;20054;-68
2023/04/11 05:55:36;;;;;;;1.10;0.50;;;19.10;62.90;;;;;;5007767;28;20053;-68
2023/04/11 05:58:05;;;;;;;1.88;0.52;;;19.10;62.90;;;;;;5009439;28;20054;-68
2023/04/11 06:00:32;;;;;;;1.50;0.45;;;19.00;62.90;;;;;;5004995;28;20128;-68
2023/04/11 06:03:00;;;;;;;1.30;0.50;;;19.00;62.90;;;;;;5007079;28;20065;-68
2023/04/11 06:05:30;;;;;;;2.70;0.68;;;19.00;62.90;;;;;;5008394;28;20054;-68
2023/04/11 06:07:57;;;;;;;2.38;0.70;;;19.00;62.90;;;;;;5008188;28;20061;-68
2023/04/11 06:10:24;;;;;;;0.95;0.10;;;18.90;62.90;;;;;;5005500;28;20142;-68
2023/04/11 06:12:51;;;;;;;1.55;0.75;;;18.90;63.00;;;;;;5006999;28;20058;-68
2023/04/11 06:15:19;;;;;;;0.93;0.32;;;18.90;62.90;;;;;;5024720;28;20062;-68
2023/04/11 06:17:46;;;;;;;1.40;0.47;;;18.90;63.00;;;;;;5009294;28;20092;-68
2023/04/11 06:20:14;;;;;;;1.40;0.30;;;18.80;62.90;;;;;;5006444;28;20480;-68
2023/04/11 06:22:41;;;;;;;1.73;0.65;;;18.90;63.00;;;;;;5009360;28;20046;-68
2023/04/11 06:25:09;;;;;;;0.95;0.15;;;18.90;63.00;;;;;;5009655;28;20064;-68
2023/04/11 06:27:36;;;;;;;0.77;0.40;;;18.80;63.00;;;;;;5007227;28;20133;-68
2023/04/11 06:30:04;;;;;;;1.58;0.80;;;18.80;63.00;;;;;;5007607;28;20056;-69
2023/04/11 06:32:32;;;;;;;1.70;0.10;;;18.80;63.00;;;;;;5008078;28;20068;-68
2023/04/11 06:34:59;;;;;;;2.92;0.30;;;18.80;63.00;;;;;;5007789;28;20397;-68
2023/04/11 06:37:26;;;;;;;1.30;0.20;;;18.90;63.10;;;;;;5006645;28;20065;-68
2023/04/11 06:39:53;;;;;;;1.83;0.52;;;18.90;63.00;;;;;;5007901;28;20100;-68
2023/04/11 06:42:20;;;;;;;1.25;0.47;;;18.90;62.90;;;;;;5007821;28;20057;-68
2023/04/11 06:44:48;;;;;;;1.38;0.20;;;19.00;62.90;;;;;;5008151;28;20041;-68
2023/04/11 06:47:15;;;;;;;1.13;0.10;;;19.00;62.80;;;;;;5008173;28;20072;-68
2023/04/11 06:49:44;;;;;;;1.73;0.60;;;19.10;63.40;;;;;;5007215;28;20058;-68
2023/04/11 06:52:11;;;;;;;1.65;0.32;;;19.10;62.70;;;;;;5008521;28;20050;-68
2023/04/11 06:54:38;;;;;;;1.42;0.20;;;19.20;62.60;;;;;;4995355;28;20077;-68
2023/04/11 06:57:05;;;;;;;1.38;0.40;;;19.30;62.50;;;;;;5008675;28;20057;-68
2023/04/11 06:59:33;;;;;;;2.13;0.13;;;19.30;62.30;;;;;;5004638;28;20058;-68
2023/04/11 07:02:00;;;;;;;1.95;0.82;;;19.40;62.20;;;;;;5004736;28;20050;-68
2023/04/11 07:04:27;;;;;;;1.77;0.98;;;19.50;62.20;;;;;;5007933;28;20049;-68
2023/04/11 07:06:55;;;;;;;1.65;0.20;;;19.60;62.10;;;;;;5008853;28;20044;-68
2023/04/11 07:09:22;;;;;;;2.00;0.40;;;19.70;62.00;;;;;;5009514;28;20053;-68
2023/04/11 07:11:49;;;;;;;1.27;0.45;;;19.70;61.80;;;;;;5006251;28;20065;-68
2023/04/11 07:14:17;;;;;;;2.53;0.70;;;19.80;61.80;;;;;;5009477;28;20050;-68
2023/04/11 07:16:44;;;;;;;1.77;0.20;;;19.80;61.80;;;;;;5007808;28;20419;-68
2023/04/11 07:19:11;;;;;;;2.88;0.60;;;19.80;61.70;;;;;;5007767;28;20141;-68
2023/04/11 07:21:38;;;;;;;2.03;0.70;;;19.80;62.30;;;;;;5005658;28;20057;-68
2023/04/11 07:24:09;;;;;;;1.48;0.50;;;19.80;61.70;;;;;;5005343;28;20057;-68
2023/04/11 07:26:37;;;;;;;1.17;0.10;;;19.80;61.70;;;;;;5006562;28;20559;-68
2023/04/11 07:29:04;;;;;;;2.28;0.65;;;19.80;61.80;;;;;;5008232;28;20057;-68
2023/04/11 07:31:31;;;;;;;1.83;0.17;;;19.70;61.80;;;;;;5007312;28;20412;-68
2023/04/11 07:33:58;;;;;;;1.20;0.40;;;19.70;61.90;;;;;;5007633;28;20151;-68
2023/04/11 07:36:25;;;;;;;1.73;0.90;;;19.70;61.90;;;;;;5008153;28;20058;-68
2023/04/11 07:38:52;;;;;;;2.53;0.57;;;19.70;62.60;;;;;;5008310;28;20058;-69
2023/04/11 07:41:21;;;;;;;2.00;0.50;;;19.70;62.00;;;;;;4997328;28;20133;-69
2023/04/11 07:43:48;;;;;;;1.98;0.63;;;19.70;62.00;;;;;;4988365;28;20057;-68
2023/04/11 07:46:15;;;;;;;1.90;0.75;;;19.60;62.00;;;;;;4990402;28;20112;-68
2023/04/11 07:48:42;;;;;;;1.40;0.38;;;19.60;62.10;;;;;;4989657;28;20141;-68
2023/04/11 07:51:09;;;;;;;1.40;0.40;;;19.60;62.00;;;;;;5007431;28;20081;-68
2023/04/11 07:53:36;;;;;;;1.55;0.50;;;19.60;62.00;;;;;;5007992;28;20488;-68
2023/04/11 07:56:04;;;;;;;1.73;0.70;;;19.60;62.00;;;;;;5009651;28;20440;-68
2023/04/11 07:58:32;;;;;;;1.13;0.20;;;19.60;62.00;;;;;;5003121;28;20129;-68
2023/04/11 08:01:01;;;;;;;2.03;0.15;;;19.60;62.00;;;;;;4994949;28;20076;-68
2023/04/11 08:03:28;;;;;;;1.40;0.63;;;19.60;61.90;;;;;;5007113;28;20534;-68
2023/04/11 08:05:55;;;;;;;1.98;0.52;;;19.60;61.90;;;;;;5007727;28;20058;-68
2023/04/11 08:08:22;;;;;;;2.25;0.57;;;19.60;61.90;;;;;;5009294;28;20073;-68
2023/04/11 08:10:49;;;;;;;1.92;0.30;;;19.60;61.90;;;;;;5004316;28;20042;-68
2023/04/11 08:13:16;;;;;;;1.77;0.20;;;19.60;61.90;;;;;;4993072;28;20485;-68
2023/04/11 08:15:45;;;;;;;1.52;0.10;;;19.60;61.90;;;;;;5006572;28;20054;-69
2023/04/11 08:18:12;;;;;;;2.13;0.50;;;19.60;61.80;;;;;;5010997;28;20053;-68
2023/04/11 08:20:40;;;;;;;1.90;0.32;;;19.60;61.80;;;;;;5011925;28;20133;-68
2023/04/11 08:23:07;;;;;;;3.03;0.30;;;19.60;61.80;;;;;;5011237;28;20531;-68
2023/04/11 08:25:35;;;;;;;2.08;0.47;;;19.60;61.80;;;;;;5010139;28;20054;-69
2023/04/11 08:28:03;;;;;;;3.45;0.30;;;19.60;61.80;;;;;;5007673;28;20061;-68
2023/04/11 08:30:31;;;;;;;2.40;0.30;;;19.60;61.80;;;;;;5007752;28;20400;-68
2023/04/11 08:32:59;;;;;;;2.67;0.75;;;19.60;61.80;;;;;;5001866;28;20100;-69
2023/04/11 08:35:27;;;;;;;3.00;0.95;;;19.50;61.80;;;;;;5005697;28;20054;-69
2023/04/11 08:37:54;;;;;;;4.15;0.57;;;19.50;61.80;;;;;;5010798;28;20515;-69
2023/04/11 08:40:21;;;;;;;3.83;0.75;;;19.50;61.80;;;;;;5009124;28;20061;-68
2023/04/11 08:42:48;;;;;;;2.95;0.30;;;19.50;61.90;;;;;;5009349;28;20455;-69
2023/04/11 08:45:15;;;;;;;1.83;0.70;;;19.50;61.90;;;;;;5009445;28;20054;-68
2023/04/11 08:47:42;;;;;;;2.60;0.75;;;19.40;61.90;;;;;;4998974;28;20061;-69
2023/04/11 08:50:11;;;;;;;3.15;0.75;;;19.40;62.00;;;;;;4997913;28;20501;-69
2023/04/11 08:52:40;;;;;;;2.63;0.20;;;19.40;62.00;;;;;;5009703;28;20053;-68
2023/04/11 08:55:07;;;;;;;4.30;0.30;;;19.30;62.00;;;;;;5010425;28;20049;-68
2023/04/11 08:57:37;;;;;;;2.30;0.57;;;19.30;62.00;;;;;;5010969;28;20065;-68
2023/04/11 09:00:10;;;;;;;1.13;0.15;;;19.30;62.00;;;;;;5009459;28;20058;-68
2023/04/11 09:02:58;;;;;;;2.30;0.60;;;19.30;62.00;;;;;;5010092;28;20065;-68
2023/04/11 09:05:28;;;;;;;1.90;0.30;;;19.30;62.00;;;;;;5009334;28;20053;-69
2023/04/11 09:07:56;;;;;;;2.03;0.52;;;19.30;62.00;;;;;;5003590;28;20069;-69
2023/04/11 09:10:24;;;;;;;1.40;0.57;;;19.30;62.00;;;;;;5008774;28;20054;-69
2023/04/11 09:12:51;;;;;;;2.70;0.70;;;19.30;62.10;;;;;;5010945;28;20050;-68
2023/04/11 09:15:20;;;;;;;2.53;0.30;;;19.30;62.10;;;;;;5008346;28;20670;-68
2023/04/11 09:17:48;;;;;;;2.25;0.30;;;19.20;62.10;;;;;;5008525;28;20057;-68
2023/04/11 09:20:20;;;;;;;2.40;0.43;;;19.20;62.10;;;;;;5011296;28;20104;-68
2023/04/11 09:22:50;;;;;;;1.77;0.50;;;19.30;62.10;;;;;;5004612;28;20054;-69
2023/04/11 09:25:17;;;;;;;2.17;1.10;;;19.20;62.00;;;;;;5007718;28;20054;-68
2023/04/11 09:27:44;;;;;;;1.42;0.70;;;19.30;62.10;;;;;;5006282;28;20054;-67
2023/04/11 09:30:21;;;;;;;2.20;0.52;;;19.30;62.10;;;;;;5008517;28;20050;-71
2023/04/11 09:32:48;;;;;;;2.15;0.77;;;19.20;62.10;;;;;;5009971;28;20050;-67
2023/04/11 09:35:17;;;;;;;1.98;0.70;;;19.30;62.10;;;;;;5008020;28;20054;-67
2023/04/11 09:37:46;;;;;;;3.28;0.77;;;19.20;62.10;;;;;;5007384;28;20053;-66
2023/04/11 09:40:16;;;;;;;2.08;0.35;;;19.20;62.20;;;;;;5004653;28;20424;-67
2023/04/11 09:42:43;;;;;;;1.77;0.73;;;19.20;62.20;;;;;;5008196;28;20057;-68
2023/04/11 09:45:18;;;;;;;3.08;0.70;;;19.20;62.20;;;;;;5008765;28;20053;-68
2023/04/11 09:47:45;;;;;;;3.00;0.85;;;19.20;62.30;;;;;;5009594;28;20057;-68
2023/04/11 09:50:13;;;;;;;2.63;0.90;;;19.20;62.30;;;;;;5021719;28;20076;-69
2023/04/11 09:52:41;;;;;;;2.30;0.73;;;19.20;62.30;;;;;;5006726;28;20054;-68
2023/04/11 09:55:11;;;;;;;3.35;0.30;;;19.20;62.30;;;;;;5009307;28;20424;-67
2023/04/11 09:57:40;;;;;;;;;;;19.20;62.30;;;;;;5007516;28;20053;-67
2023/04/11 10:00:13;;;;;;;6.25;0.77;;;19.20;62.30;;;;;;5011099;28;19921;-67
2023/04/11 10:02:40;;;;;;;3.83;0.40;;;19.20;62.30;;;;;;5009101;28;20502;-68
2023/04/11 10:05:09;;;;;;;1.83;0.20;;;19.20;62.30;;;;;;5010361;28;20365;-67
2023/04/11 10:07:45;;;;;;;1.75;0.60;;;19.20;62.30;;;;;;5006754;28;20073;-71
2023/04/11 10:10:18;;;;;;;3.00;0.68;;;19.20;62.30;;;;;;5009481;28;20057;-68
2023/04/11 10:12:47;;;;;;;4.13;0.60;;;19.20;62.20;;;;;;5007170;28;20049;-68
2023/04/11 10:15:15;;;;;;;2.13;1.50;;;19.30;62.20;;;;;;5008444;28;20053;-67
2023/04/11 10:17:42;;;;;;;3.10;0.68;;;19.30;62.10;;;;;;5008660;28;20104;-68
2023/04/11 10:20:47;;;;;;;1.73;0.40;;;19.30;62.10;;;;;;5009758;28;20046;-68
2023/04/11 10:23:15;;;;;;;1.35;0.50;;;19.30;62.10;;;;;;4926900;29;20239;-68
2023/04/11 10:25:50;;;;;;;3.28;0.20;;;19.30;62.00;;;;;;4986608;28;20092;-68
2023/04/11 10:28:33;;;;;;;2.70;0.32;;;19.40;62.10;;;;;;5007100;28;20049;-68
2023/04/11 10:31:04;;;;;;;1.75;0.75;;;19.40;62.00;;;;;;5007684;28;20066;-67
2023/04/11 10:33:32;;;;;;;1.88;0.10;;;19.40;62.00;;;;;;5008037;28;20061;-67
2023/04/11 10:36:02;;;;;;;1.67;0.57;;;19.40;61.90;;;;;;5007617;28;20057;-67
2023/04/11 10:38:47;;;;;;;2.03;0.45;;;19.50;62.00;;;;;;4994990;28;20046;-68
2023/04/11 10:41:16;;;;;;;2.17;0.30;;;19.50;61.90;;;;;;5008211;28;20376;-67
2023/04/11 10:43:44;;;;;;;2.80;0.30;;;19.40;61.90;;;;;;5007759;28;20057;-68
2023/04/11 10:46:19;;;;;;;2.30;0.52;;;19.40;61.90;;;;;;5007193;28;20053;-68
2023/04/11 10:48:59;;;;;;;2.28;1.38;;;19.40;61.90;;;;;;5001825;28;20046;-68
2023/04/11 10:51:28;;;;;;;3.10;0.55;;;19.40;62.00;;;;;;4996660;28;20119;-68
2023/04/11 10:53:58;;;;;;;1.85;0.50;;;19.40;62.00;;;;;;5008197;28;20176;-70
2023/04/11 10:56:44;;;;;;;;;;;19.40;62.00;;;;;;5003532;28;20555;-70
2023/04/11 10:59:41;;;;;;;2.47;0.70;;;19.30;61.90;;;;;;5006278;28;20009;-71
2023/04/11 11:02:09;;;;;;;3.45;0.95;;;19.30;62.00;;;;;;5006583;28;20046;-71
2023/04/11 11:04:37;;;;;;;2.03;0.52;;;19.30;62.00;;;;;;5004761;28;20069;-70
2023/04/11 11:07:06;;;;;;;2.42;0.40;;;19.30;62.10;;;;;;5008764;28;20057;-70
2023/04/11 11:09:34;;;;;;;2.30;0.30;;;19.30;62.10;;;;;;5007863;28;20053;-69
2023/04/11 11:12:08;;;;;;;1.38;0.50;;;19.30;62.10;;;;;;4998723;28;20492;-70
2023/04/11 11:14:35;;;;;;;2.65;0.65;;;19.20;62.00;;;;;;5005461;28;20160;-70
2023/04/11 11:17:03;;;;;;;2.53;0.52;;;19.30;62.10;;;;;;5000466;28;20073;-70
2023/04/11 11:19:32;;;;;;;2.50;0.20;;;19.30;62.10;;;;;;5005524;28;20389;-69
2023/04/11 11:22:02;;;;;;;2.13;0.57;;;19.30;62.10;;;;;;5003103;28;20046;-70
2023/04/11 11:24:29;;;;;;;1.60;0.60;;;19.30;62.10;;;;;;5007797;28;20061;-70
2023/04/11 11:26:57;;;;;;;1.08;0.32;;;19.30;62.10;;;;;;5007827;28;20053;-70
2023/04/11 11:29:31;;;;;;;2.20;0.50;;;19.30;62.10;;;;;;5001367;28;20054;-70
2023/04/11 11:32:01;;;;;;;1.27;0.45;;;19.30;62.10;;;;;;5008534;28;20050;-70
2023/04/11 11:34:31;;;;;;;1.90;0.60;;;19.30;62.10;;;;;;5007190;28;20065;-71
2023/04/11 11:37:00;;;;;;;2.08;0.55;;;19.30;62.10;;;;;;4998100;28;20050;-70
2023/04/11 11:39:28;;;;;;;1.98;0.68;;;19.30;62.10;;;;;;4997856;28;20062;-69
2023/04/11 11:41:56;;;;;;;2.33;0.35;;;19.30;62.10;;;;;;5008625;28;20053;-70
2023/04/11 11:44:24;;;;;;;3.00;0.47;;;19.30;62.10;;;;;;5007980;28;20089;-70
2023/04/11 11:47:04;;;;;;;1.38;0.10;;;19.30;62.10;;;;;;5006315;28;20047;-70
2023/04/11 11:49:46;;;;;;;2.53;0.10;;;19.30;62.10;;;;;;5006822;28;20052;-70
2023/04/11 11:52:29;;;;;;;3.10;0.40;;;19.30;62.10;;;;;;5009552;28;20060;-69
2023/04/11 11:54:56;;;;;;;1.50;0.32;;;19.30;62.00;;;;;;5005485;28;20052;-69
2023/04/11 11:57:23;;;;;;;1.65;0.47;;;19.30;62.00;;;;;;5008901;28;20057;-70
2023/04/11 11:59:55;;;;;;;2.88;0.70;;;19.40;62.00;;;;;;5009726;28;20060;-70
2023/04/11 12:02:24;;;;;;;1.08;0.20;;;19.40;62.00;;;;;;5008539;28;20490;-70
2023/04/11 12:04:58;;;;;;;2.00;0.30;;;19.40;61.90;;;;;;5010716;28;20157;-69
2023/04/11 12:07:25;;;;;;;2.30;0.50;;;19.40;61.80;;;;;;5010441;28;20096;-69
2023/04/11 12:09:56;;;;;;;1.63;0.70;;;19.50;61.80;;;;;;5008774;28;20594;-70
2023/04/11 12:12:23;;;;;;;1.95;0.20;;;19.50;62.00;;;;;;5008703;28;20056;-69
2023/04/11 12:14:53;;;;;;;2.58;0.52;;;19.60;61.80;;;;;;5011139;28;20042;-69
2023/04/11 12:17:20;;;;;;;2.00;0.45;;;19.60;61.80;;;;;;5009217;28;20042;-69
2023/04/11 12:19:47;;;;;;;2.20;0.40;;;19.70;61.70;;;;;;5009254;28;20053;-69
2023/04/11 12:22:16;;;;;;;1.95;0.55;;;19.70;61.60;;;;;;5010550;28;20046;-69
2023/04/11 12:24:43;;;;;;;1.83;0.55;;;19.80;61.60;;;;;;5008173;28;20058;-70
2023/04/11 12:27:11;;;;;;;1.27;0.40;;;19.80;61.50;;;;;;5008481;28;20058;-69
2023/04/11 12:29:38;;;;;;;3.33;0.57;;;19.90;61.50;;;;;;5004498;28;20050;-69
2023/04/11 12:32:05;;;;;;;1.23;0.38;;;19.90;62.00;;;;;;5006005;28;20050;-69
2023/04/11 12:34:32;;;;;;;1.65;0.43;;;19.90;61.40;;;;;;5011111;28;20054;-69
2023/04/11 12:36:59;;;;;;;1.67;0.50;;;19.90;61.30;;;;;;5010625;28;20489;-69
2023/04/11 12:39:27;;;;;;;2.15;0.60;;;20.00;61.30;;;;;;5009139;28;20042;-69
2023/04/11 12:41:54;;;;;;;1.23;0.10;;;20.00;61.30;;;;;;5010097;28;20412;-69
2023/04/11 12:44:21;;;;;;;1.98;0.10;;;20.10;61.20;;;;;;5007360;28;20395;-70
2023/04/11 12:46:48;;;;;;;2.50;0.47;;;20.20;61.20;;;;;;5008244;28;20053;-70
2023/04/11 12:49:15;;;;;;;2.08;0.75;;;20.20;61.20;;;;;;5010581;28;20057;-69
2023/04/11 12:51:42;;;;;;;2.28;0.70;;;20.20;61.10;;;;;;5009593;28;20054;-69
2023/04/11 12:54:09;;;;;;;2.17;0.60;;;20.20;61.20;;;;;;5010092;28;20153;-70